THY3BZ LTAN-LTFM
Flight info
| Callsign | THY3BZ |
|---|---|
| Flight time | 0h 56m |
| Altitude | 34000 |
| Route | HISAR UL620 OSVEL UT337 KFK UM855 SISPI |
| Aircraft | A320/M-SDE3FGHIRWY/LB1 |
Departure
| Time | 2026-05-05 12:07 |
|---|---|
| Airport | Konya Airport (LTAN) |
Arrival
| Time | 2026-05-05 13:03 |
|---|---|
| Airport | İstanbul Airport (LTFM) |
| Time | Latitude | Longitude | Altitude | Speed | Heading |
|---|---|---|---|---|---|
| 2026-05-05 11:30 | 37.98405 | 32.57525 | 3386 ft | 0 kts | 108° |
| 2026-05-05 11:53 | 37.98412 | 32.57502 | 3389 ft | 4 kts | 118° |
| 2026-05-05 11:53 | 37.98428 | 32.57475 | 3390 ft | 4 kts | 141° |
| 2026-05-05 11:53 | 37.98450 | 32.57461 | 3386 ft | 4 kts | 183° |
| 2026-05-05 11:54 | 37.98459 | 32.57462 | 3386 ft | 0 kts | 200° |
| 2026-05-05 11:57 | 37.98447 | 32.57457 | 3391 ft | 3 kts | 200° |
| 2026-05-05 11:57 | 37.98438 | 32.57422 | 3389 ft | 7 kts | 278° |
| 2026-05-05 11:58 | 37.98451 | 32.57358 | 3386 ft | 8 kts | 286° |
| 2026-05-05 11:58 | 37.98473 | 32.57265 | 3388 ft | 14 kts | 287° |
| 2026-05-05 11:58 | 37.98504 | 32.57133 | 3387 ft | 17 kts | 287° |
| 2026-05-05 11:58 | 37.98536 | 32.56998 | 3386 ft | 16 kts | 286° |
| 2026-05-05 11:59 | 37.98569 | 32.56859 | 3389 ft | 17 kts | 287° |
| 2026-05-05 11:59 | 37.98605 | 32.56710 | 3386 ft | 14 kts | 287° |
| 2026-05-05 11:59 | 37.98570 | 32.56631 | 3388 ft | 12 kts | 199° |
| 2026-05-05 11:59 | 37.98471 | 32.56593 | 3384 ft | 17 kts | 197° |
| 2026-05-05 12:00 | 37.98357 | 32.56550 | 3383 ft | 18 kts | 197° |
| 2026-05-05 12:00 | 37.98238 | 32.56505 | 3382 ft | 19 kts | 197° |
| 2026-05-05 12:00 | 37.98124 | 32.56462 | 3381 ft | 16 kts | 197° |
| 2026-05-05 12:00 | 37.98013 | 32.56420 | 3380 ft | 17 kts | 197° |
| 2026-05-05 12:01 | 37.97908 | 32.56380 | 3379 ft | 16 kts | 196° |
| 2026-05-05 12:01 | 37.97796 | 32.56337 | 3378 ft | 18 kts | 197° |
| 2026-05-05 12:01 | 37.97675 | 32.56289 | 3377 ft | 17 kts | 197° |
| 2026-05-05 12:01 | 37.97571 | 32.56251 | 3375 ft | 17 kts | 196° |
| 2026-05-05 12:02 | 37.97453 | 32.56207 | 3373 ft | 19 kts | 197° |
| 2026-05-05 12:02 | 37.97330 | 32.56160 | 3372 ft | 17 kts | 197° |
| 2026-05-05 12:02 | 37.97211 | 32.56115 | 3370 ft | 19 kts | 197° |
| 2026-05-05 12:02 | 37.97086 | 32.56068 | 3369 ft | 14 kts | 196° |
| 2026-05-05 12:03 | 37.96985 | 32.56030 | 3368 ft | 16 kts | 197° |
| 2026-05-05 12:03 | 37.96872 | 32.55987 | 3367 ft | 17 kts | 196° |
| 2026-05-05 12:03 | 37.96755 | 32.55942 | 3411 ft | 18 kts | 197° |
| 2026-05-05 12:03 | 37.96643 | 32.55899 | 3412 ft | 16 kts | 197° |
| 2026-05-05 12:04 | 37.96533 | 32.55858 | 3413 ft | 17 kts | 196° |
| 2026-05-05 12:04 | 37.96451 | 32.55826 | 3412 ft | 13 kts | 197° |
| 2026-05-05 12:04 | 37.96390 | 32.55772 | 3407 ft | 9 kts | 262° |
| 2026-05-05 12:04 | 37.96433 | 32.55712 | 3411 ft | 10 kts | 325° |
| 2026-05-05 12:05 | 37.96501 | 32.55676 | 3411 ft | 11 kts | 355° |
| 2026-05-05 12:05 | 37.96545 | 32.55686 | 3410 ft | 0 kts | 15° |
| 2026-05-05 12:06 | 37.96625 | 32.55715 | 3409 ft | 40 kts | 15° |
| 2026-05-05 12:06 | 37.97109 | 32.55899 | 3367 ft | 102 kts | 16° |
| 2026-05-05 12:06 | 37.97950 | 32.56216 | 3382 ft | 148 kts | 16° |
| 2026-05-05 12:06 | 37.98990 | 32.56619 | 3797 ft | 156 kts | 16° |
| 2026-05-05 12:07 | 38.00023 | 32.57037 | 4501 ft | 154 kts | 15° |
| 2026-05-05 12:07 | 38.01021 | 32.57499 | 5215 ft | 154 kts | 20° |
| 2026-05-05 12:07 | 38.02071 | 32.58092 | 5438 ft | 177 kts | 22° |
| 2026-05-05 12:07 | 38.03261 | 32.58790 | 5652 ft | 199 kts | 22° |
| 2026-05-05 12:08 | 38.04582 | 32.59555 | 6044 ft | 214 kts | 21° |
| 2026-05-05 12:08 | 38.06027 | 32.59852 | 6738 ft | 214 kts | 346° |
| 2026-05-05 12:08 | 38.07258 | 32.58872 | 7355 ft | 216 kts | 306° |
| 2026-05-05 12:08 | 38.07674 | 32.57030 | 7898 ft | 227 kts | 266° |
| 2026-05-05 12:09 | 38.07068 | 32.55147 | 8069 ft | 236 kts | 226° |
| 2026-05-05 12:09 | 38.05645 | 32.54176 | 8207 ft | 238 kts | 186° |
| 2026-05-05 12:09 | 38.03999 | 32.54337 | 8314 ft | 240 kts | 166° |
| 2026-05-05 12:09 | 38.02374 | 32.54840 | 8438 ft | 241 kts | 175° |
| 2026-05-05 12:10 | 38.00781 | 32.54385 | 8566 ft | 239 kts | 217° |
| 2026-05-05 12:10 | 37.99730 | 32.52685 | 8753 ft | 259 kts | 256° |
| 2026-05-05 12:10 | 37.99612 | 32.50381 | 9183 ft | 271 kts | 279° |
| 2026-05-05 12:10 | 37.99995 | 32.47985 | 9763 ft | 282 kts | 287° |
| 2026-05-05 12:11 | 38.00518 | 32.45546 | 10305 ft | 295 kts | 288° |
| 2026-05-05 12:11 | 38.01062 | 32.42930 | 10536 ft | 318 kts | 286° |
| 2026-05-05 12:11 | 38.01559 | 32.40174 | 11012 ft | 329 kts | 284° |
| 2026-05-05 12:11 | 38.01995 | 32.37305 | 11667 ft | 334 kts | 282° |
| 2026-05-05 12:12 | 38.02381 | 32.34380 | 12362 ft | 338 kts | 281° |
| 2026-05-05 12:12 | 38.02736 | 32.31415 | 13038 ft | 342 kts | 281° |
| 2026-05-05 12:12 | 38.03074 | 32.28413 | 13744 ft | 346 kts | 281° |
| 2026-05-05 12:12 | 38.03412 | 32.25374 | 14378 ft | 349 kts | 281° |
| 2026-05-05 12:13 | 38.03758 | 32.22314 | 14986 ft | 352 kts | 281° |
| 2026-05-05 12:13 | 38.04111 | 32.19222 | 15594 ft | 355 kts | 281° |
| 2026-05-05 12:13 | 38.04473 | 32.16108 | 16198 ft | 358 kts | 281° |
| 2026-05-05 12:13 | 38.04841 | 32.12971 | 16799 ft | 361 kts | 281° |
| 2026-05-05 12:14 | 38.05213 | 32.09808 | 17397 ft | 364 kts | 282° |
| 2026-05-05 12:14 | 38.05590 | 32.06612 | 17987 ft | 368 kts | 282° |
| 2026-05-05 12:14 | 38.05964 | 32.03389 | 18558 ft | 371 kts | 282° |
| 2026-05-05 12:14 | 38.06337 | 32.00145 | 19122 ft | 373 kts | 282° |
| 2026-05-05 12:15 | 38.06586 | 31.97982 | 19525 ft | 374 kts | 282° |
| 2026-05-05 12:15 | 38.06963 | 31.94715 | 20122 ft | 376 kts | 283° |
| 2026-05-05 12:15 | 38.07340 | 31.91427 | 20728 ft | 377 kts | 283° |
| 2026-05-05 12:15 | 38.07720 | 31.88126 | 21315 ft | 379 kts | 283° |
| 2026-05-05 12:16 | 38.08102 | 31.84808 | 21892 ft | 381 kts | 283° |
| 2026-05-05 12:16 | 38.08483 | 31.81473 | 22468 ft | 383 kts | 284° |
| 2026-05-05 12:16 | 38.08862 | 31.78124 | 23039 ft | 384 kts | 283° |
| 2026-05-05 12:16 | 38.09240 | 31.74763 | 23603 ft | 386 kts | 283° |
| 2026-05-05 12:17 | 38.09621 | 31.71381 | 24082 ft | 387 kts | 283° |
| 2026-05-05 12:17 | 38.10003 | 31.67993 | 24539 ft | 389 kts | 283° |
| 2026-05-05 12:17 | 38.10384 | 31.64590 | 24984 ft | 390 kts | 284° |
| 2026-05-05 12:17 | 38.10768 | 31.61174 | 25425 ft | 392 kts | 284° |
| 2026-05-05 12:18 | 38.11234 | 31.57768 | 25853 ft | 389 kts | 290° |
| 2026-05-05 12:18 | 38.12127 | 31.54552 | 26272 ft | 384 kts | 300° |
| 2026-05-05 12:18 | 38.13451 | 31.51624 | 26652 ft | 381 kts | 308° |
| 2026-05-05 12:18 | 38.15122 | 31.49064 | 27030 ft | 381 kts | 314° |
| 2026-05-05 12:19 | 38.16901 | 31.46557 | 27412 ft | 383 kts | 314° |
| 2026-05-05 12:19 | 38.18687 | 31.44032 | 27785 ft | 385 kts | 314° |
| 2026-05-05 12:19 | 38.20479 | 31.41487 | 28178 ft | 387 kts | 314° |
| 2026-05-05 12:19 | 38.22275 | 31.38934 | 28562 ft | 388 kts | 314° |
| 2026-05-05 12:20 | 38.24083 | 31.36366 | 28933 ft | 390 kts | 314° |
| 2026-05-05 12:20 | 38.25896 | 31.33786 | 29296 ft | 392 kts | 314° |
| 2026-05-05 12:20 | 38.27717 | 31.31190 | 29651 ft | 394 kts | 314° |
| 2026-05-05 12:20 | 38.29549 | 31.28579 | 30009 ft | 396 kts | 314° |
| 2026-05-05 12:21 | 38.31386 | 31.25956 | 30313 ft | 398 kts | 314° |
| 2026-05-05 12:21 | 38.33234 | 31.23312 | 30576 ft | 401 kts | 313° |
| 2026-05-05 12:21 | 38.35091 | 31.20654 | 30896 ft | 402 kts | 313° |
| 2026-05-05 12:21 | 38.36949 | 31.17994 | 31295 ft | 402 kts | 313° |
| 2026-05-05 12:22 | 38.38805 | 31.15336 | 31693 ft | 401 kts | 313° |
| 2026-05-05 12:22 | 38.40662 | 31.12678 | 32107 ft | 400 kts | 313° |
| 2026-05-05 12:22 | 38.42511 | 31.10031 | 32521 ft | 400 kts | 313° |
| 2026-05-05 12:22 | 38.44358 | 31.07380 | 32935 ft | 399 kts | 313° |
| 2026-05-05 12:23 | 38.46199 | 31.04733 | 33354 ft | 398 kts | 313° |
| 2026-05-05 12:23 | 38.48036 | 31.02094 | 33751 ft | 398 kts | 313° |
| 2026-05-05 12:23 | 38.49875 | 30.99442 | 34003 ft | 398 kts | 313° |
| 2026-05-05 12:23 | 38.51707 | 30.96783 | 34039 ft | 399 kts | 313° |
| 2026-05-05 12:24 | 38.55347 | 30.91467 | 34038 ft | 401 kts | 313° |
| 2026-05-05 12:24 | 38.59026 | 30.86091 | 34043 ft | 402 kts | 313° |
| 2026-05-05 12:25 | 38.62710 | 30.80714 | 34042 ft | 402 kts | 313° |
| 2026-05-05 12:25 | 38.66395 | 30.75324 | 34033 ft | 402 kts | 313° |
| 2026-05-05 12:26 | 38.70070 | 30.69924 | 34042 ft | 402 kts | 312° |
| 2026-05-05 12:26 | 38.73743 | 30.64521 | 34043 ft | 402 kts | 312° |
| 2026-05-05 12:27 | 38.77412 | 30.59108 | 34045 ft | 402 kts | 312° |
| 2026-05-05 12:27 | 38.81479 | 30.54208 | 34040 ft | 402 kts | 327° |
| 2026-05-05 12:28 | 38.86402 | 30.50898 | 34042 ft | 403 kts | 333° |
| 2026-05-05 12:28 | 38.91416 | 30.47677 | 34035 ft | 403 kts | 333° |
| 2026-05-05 12:29 | 38.96428 | 30.44452 | 34034 ft | 403 kts | 333° |
| 2026-05-05 12:29 | 39.01447 | 30.41234 | 34044 ft | 403 kts | 333° |
| 2026-05-05 12:30 | 39.06487 | 30.37998 | 34045 ft | 407 kts | 333° |
| 2026-05-05 12:30 | 39.11569 | 30.34726 | 34043 ft | 409 kts | 333° |
| 2026-05-05 12:31 | 39.16667 | 30.31449 | 34043 ft | 410 kts | 333° |
| 2026-05-05 12:31 | 39.21745 | 30.28185 | 34035 ft | 410 kts | 333° |
| 2026-05-05 12:32 | 39.26843 | 30.24894 | 34046 ft | 410 kts | 333° |
| 2026-05-05 12:32 | 39.31942 | 30.21583 | 34050 ft | 410 kts | 333° |
| 2026-05-05 12:33 | 39.37046 | 30.18263 | 34043 ft | 410 kts | 333° |
| 2026-05-05 12:33 | 39.42149 | 30.14949 | 34053 ft | 410 kts | 333° |
| 2026-05-05 12:34 | 39.47262 | 30.11667 | 34059 ft | 411 kts | 334° |
| 2026-05-05 12:34 | 39.52528 | 30.08672 | 34066 ft | 415 kts | 337° |
| 2026-05-05 12:35 | 39.55199 | 30.07238 | 33963 ft | 415 kts | 337° |
| 2026-05-05 12:35 | 39.57854 | 30.05816 | 33687 ft | 411 kts | 337° |
| 2026-05-05 12:35 | 39.60484 | 30.04393 | 33411 ft | 408 kts | 336° |
| 2026-05-05 12:35 | 39.63092 | 30.02955 | 33140 ft | 406 kts | 336° |
| 2026-05-05 12:36 | 39.65680 | 30.01514 | 32830 ft | 401 kts | 336° |
| 2026-05-05 12:36 | 39.68229 | 30.00083 | 32382 ft | 397 kts | 335° |
| 2026-05-05 12:36 | 39.70714 | 29.98526 | 31573 ft | 398 kts | 329° |
| 2026-05-05 12:36 | 39.73096 | 29.96682 | 30509 ft | 398 kts | 328° |
| 2026-05-05 12:37 | 39.75461 | 29.94813 | 29575 ft | 394 kts | 327° |
| 2026-05-05 12:37 | 39.77745 | 29.92984 | 29149 ft | 378 kts | 327° |
| 2026-05-05 12:37 | 39.79967 | 29.91197 | 28733 ft | 374 kts | 327° |
| 2026-05-05 12:37 | 39.82166 | 29.89427 | 28319 ft | 370 kts | 327° |
| 2026-05-05 12:38 | 39.84350 | 29.87675 | 27924 ft | 368 kts | 327° |
| 2026-05-05 12:38 | 39.86520 | 29.85936 | 27529 ft | 365 kts | 327° |
| 2026-05-05 12:38 | 39.88682 | 29.84208 | 27138 ft | 363 kts | 327° |
| 2026-05-05 12:38 | 39.90831 | 29.82493 | 26747 ft | 361 kts | 327° |
| 2026-05-05 12:39 | 39.92965 | 29.80792 | 26379 ft | 359 kts | 327° |
| 2026-05-05 12:39 | 39.95089 | 29.79099 | 25997 ft | 357 kts | 327° |
| 2026-05-05 12:39 | 39.97202 | 29.77411 | 25618 ft | 355 kts | 327° |
| 2026-05-05 12:39 | 39.99274 | 29.75754 | 25247 ft | 353 kts | 327° |
| 2026-05-05 12:40 | 40.01359 | 29.74082 | 24869 ft | 351 kts | 327° |
| 2026-05-05 12:40 | 40.03439 | 29.72413 | 24478 ft | 350 kts | 327° |
| 2026-05-05 12:40 | 40.05508 | 29.70754 | 24084 ft | 348 kts | 327° |
| 2026-05-05 12:40 | 40.07569 | 29.69098 | 23688 ft | 347 kts | 328° |
| 2026-05-05 12:41 | 40.09621 | 29.67443 | 23240 ft | 346 kts | 327° |
| 2026-05-05 12:41 | 40.11665 | 29.65798 | 22836 ft | 344 kts | 328° |
| 2026-05-05 12:41 | 40.13697 | 29.64166 | 22433 ft | 341 kts | 328° |
| 2026-05-05 12:41 | 40.15708 | 29.62547 | 22026 ft | 338 kts | 328° |
| 2026-05-05 12:42 | 40.17707 | 29.60940 | 21622 ft | 336 kts | 328° |
| 2026-05-05 12:42 | 40.19690 | 29.59341 | 21210 ft | 334 kts | 328° |
| 2026-05-05 12:42 | 40.21661 | 29.57747 | 20799 ft | 332 kts | 328° |
| 2026-05-05 12:42 | 40.23623 | 29.56162 | 20391 ft | 331 kts | 328° |
| 2026-05-05 12:43 | 40.25574 | 29.54587 | 19985 ft | 329 kts | 328° |
| 2026-05-05 12:43 | 40.27523 | 29.53014 | 19574 ft | 328 kts | 328° |
| 2026-05-05 12:43 | 40.29464 | 29.51447 | 19170 ft | 327 kts | 328° |
| 2026-05-05 12:43 | 40.31401 | 29.49885 | 18765 ft | 326 kts | 328° |
| 2026-05-05 12:44 | 40.33329 | 29.48323 | 18348 ft | 326 kts | 328° |
| 2026-05-05 12:44 | 40.35255 | 29.46757 | 17905 ft | 325 kts | 328° |
| 2026-05-05 12:44 | 40.37165 | 29.45200 | 17485 ft | 322 kts | 328° |
| 2026-05-05 12:44 | 40.39067 | 29.43654 | 17093 ft | 320 kts | 328° |
| 2026-05-05 12:45 | 40.40957 | 29.42119 | 16685 ft | 318 kts | 328° |
| 2026-05-05 12:45 | 40.42834 | 29.40594 | 16290 ft | 317 kts | 328° |
| 2026-05-05 12:45 | 40.44701 | 29.39078 | 15892 ft | 315 kts | 328° |
| 2026-05-05 12:45 | 40.46558 | 29.37569 | 15496 ft | 313 kts | 328° |
| 2026-05-05 12:46 | 40.48384 | 29.36087 | 15101 ft | 312 kts | 328° |
| 2026-05-05 12:46 | 40.50222 | 29.34589 | 14712 ft | 310 kts | 328° |
| 2026-05-05 12:46 | 40.52053 | 29.33094 | 14319 ft | 309 kts | 329° |
| 2026-05-05 12:46 | 40.53879 | 29.31605 | 13930 ft | 308 kts | 329° |
| 2026-05-05 12:47 | 40.55699 | 29.30120 | 13516 ft | 308 kts | 329° |
| 2026-05-05 12:47 | 40.57518 | 29.28632 | 13117 ft | 307 kts | 329° |
| 2026-05-05 12:47 | 40.59323 | 29.27156 | 12718 ft | 305 kts | 329° |
| 2026-05-05 12:47 | 40.61122 | 29.25680 | 12284 ft | 305 kts | 329° |
| 2026-05-05 12:48 | 40.62914 | 29.24207 | 11882 ft | 302 kts | 329° |
| 2026-05-05 12:48 | 40.64695 | 29.22745 | 11509 ft | 300 kts | 329° |
| 2026-05-05 12:48 | 40.66458 | 29.21298 | 11133 ft | 298 kts | 329° |
| 2026-05-05 12:48 | 40.68185 | 29.19880 | 10905 ft | 284 kts | 330° |
| 2026-05-05 12:49 | 40.69808 | 29.18546 | 10718 ft | 268 kts | 330° |
| 2026-05-05 12:49 | 40.71375 | 29.17258 | 10328 ft | 263 kts | 330° |
| 2026-05-05 12:49 | 40.72912 | 29.15994 | 10067 ft | 260 kts | 330° |
| 2026-05-05 12:49 | 40.74470 | 29.14716 | 9770 ft | 267 kts | 330° |
| 2026-05-05 12:50 | 40.76049 | 29.13422 | 9392 ft | 268 kts | 330° |
| 2026-05-05 12:50 | 40.77634 | 29.12120 | 8923 ft | 271 kts | 330° |
| 2026-05-05 12:50 | 40.79209 | 29.10818 | 8406 ft | 266 kts | 329° |
| 2026-05-05 12:50 | 40.80767 | 29.09531 | 7873 ft | 262 kts | 329° |
| 2026-05-05 12:51 | 40.82306 | 29.08262 | 7409 ft | 260 kts | 329° |
| 2026-05-05 12:51 | 40.83832 | 29.07003 | 6968 ft | 259 kts | 329° |
| 2026-05-05 12:51 | 40.85362 | 29.05741 | 6517 ft | 259 kts | 329° |
| 2026-05-05 12:51 | 40.86877 | 29.04490 | 6194 ft | 252 kts | 329° |
| 2026-05-05 12:52 | 40.88321 | 29.03296 | 6062 ft | 238 kts | 329° |
| 2026-05-05 12:52 | 40.89627 | 29.02045 | 5859 ft | 229 kts | 314° |
| 2026-05-05 12:52 | 40.90427 | 29.00255 | 5695 ft | 229 kts | 289° |
| 2026-05-05 12:52 | 40.90548 | 28.98151 | 5571 ft | 235 kts | 263° |
| 2026-05-05 12:53 | 40.90133 | 28.96041 | 5444 ft | 237 kts | 258° |
| 2026-05-05 12:53 | 40.89690 | 28.93948 | 5304 ft | 237 kts | 257° |
| 2026-05-05 12:53 | 40.89246 | 28.91853 | 5176 ft | 236 kts | 258° |
| 2026-05-05 12:53 | 40.88804 | 28.89763 | 5069 ft | 236 kts | 258° |
| 2026-05-05 12:54 | 40.87921 | 28.85580 | 5003 ft | 236 kts | 258° |
| 2026-05-05 12:54 | 40.87585 | 28.83467 | 5005 ft | 233 kts | 272° |
| 2026-05-05 12:54 | 40.87892 | 28.81445 | 5010 ft | 227 kts | 298° |
| 2026-05-05 12:55 | 40.88832 | 28.79816 | 5007 ft | 223 kts | 323° |
| 2026-05-05 12:55 | 40.90167 | 28.78811 | 5019 ft | 222 kts | 335° |
| 2026-05-05 12:55 | 40.91561 | 28.77926 | 5010 ft | 222 kts | 335° |
| 2026-05-05 12:55 | 40.92948 | 28.77027 | 5013 ft | 222 kts | 333° |
| 2026-05-05 12:56 | 40.94295 | 28.76024 | 5006 ft | 222 kts | 330° |
| 2026-05-05 12:56 | 40.95624 | 28.74972 | 5009 ft | 223 kts | 330° |
| 2026-05-05 12:56 | 40.96943 | 28.73922 | 5004 ft | 216 kts | 332° |
| 2026-05-05 12:56 | 40.98332 | 28.73345 | 5007 ft | 207 kts | 355° |
| 2026-05-05 12:57 | 40.99767 | 28.73295 | 5004 ft | 206 kts | 358° |
| 2026-05-05 12:57 | 41.01203 | 28.73261 | 5009 ft | 206 kts | 358° |
| 2026-05-05 12:57 | 41.02638 | 28.73232 | 4979 ft | 207 kts | 359° |
| 2026-05-05 12:57 | 41.04086 | 28.73204 | 4696 ft | 208 kts | 359° |
| 2026-05-05 12:58 | 41.05533 | 28.73176 | 4409 ft | 208 kts | 359° |
| 2026-05-05 12:58 | 41.06975 | 28.73148 | 4124 ft | 207 kts | 359° |
| 2026-05-05 12:58 | 41.08418 | 28.73120 | 3843 ft | 208 kts | 359° |
| 2026-05-05 12:58 | 41.09863 | 28.73092 | 3571 ft | 207 kts | 359° |
| 2026-05-05 12:59 | 41.11306 | 28.73064 | 3281 ft | 207 kts | 359° |
| 2026-05-05 12:59 | 41.12719 | 28.73037 | 3000 ft | 198 kts | 359° |
| 2026-05-05 12:59 | 41.14064 | 28.73011 | 2775 ft | 187 kts | 359° |
| 2026-05-05 13:00 | 41.16557 | 28.72963 | 2247 ft | 171 kts | 359° |
| 2026-05-05 13:00 | 41.17710 | 28.72940 | 2011 ft | 159 kts | 359° |
| 2026-05-05 13:01 | 41.20759 | 28.72881 | 1448 ft | 139 kts | 359° |
| 2026-05-05 13:01 | 41.21707 | 28.72863 | 1261 ft | 135 kts | 359° |
| 2026-05-05 13:01 | 41.22653 | 28.72845 | 1070 ft | 135 kts | 359° |
| 2026-05-05 13:01 | 41.23590 | 28.72827 | 880 ft | 134 kts | 360° |
| 2026-05-05 13:02 | 41.24517 | 28.72808 | 706 ft | 132 kts | 359° |
| 2026-05-05 13:02 | 41.25428 | 28.72793 | 532 ft | 131 kts | 360° |
| 2026-05-05 13:02 | 41.26326 | 28.72774 | 381 ft | 131 kts | 359° |
| 2026-05-05 13:02 | 41.27167 | 28.72756 | 330 ft | 100 kts | 359° |
| 2026-05-05 13:03 | 41.27689 | 28.72744 | 330 ft | 50 kts | 359° |
| 2026-05-05 13:03 | 41.27919 | 28.72755 | 334 ft | 26 kts | 12° |
| 2026-05-05 13:03 | 41.28063 | 28.72831 | 334 ft | 20 kts | 28° |
| 2026-05-05 13:03 | 41.28123 | 28.72877 | 334 ft | 9 kts | 34° |
| 2026-05-05 13:04 | 41.28140 | 28.72928 | 332 ft | 10 kts | 96° |
| 2026-05-05 13:04 | 41.28076 | 28.72961 | 331 ft | 12 kts | 179° |
| 2026-05-05 13:04 | 41.27988 | 28.72963 | 333 ft | 14 kts | 179° |
| 2026-05-05 13:04 | 41.27884 | 28.72966 | 330 ft | 16 kts | 179° |
| 2026-05-05 13:05 | 41.27772 | 28.72968 | 334 ft | 17 kts | 179° |
| 2026-05-05 13:05 | 41.27672 | 28.72971 | 331 ft | 15 kts | 179° |
| 2026-05-05 13:05 | 41.27559 | 28.72973 | 334 ft | 17 kts | 179° |
| 2026-05-05 13:05 | 41.27436 | 28.72975 | 334 ft | 16 kts | 180° |
| 2026-05-05 13:06 | 41.27326 | 28.72979 | 333 ft | 14 kts | 179° |
| 2026-05-05 13:06 | 41.27220 | 28.72981 | 331 ft | 16 kts | 179° |
| 2026-05-05 13:06 | 41.27100 | 28.72984 | 331 ft | 18 kts | 179° |
| 2026-05-05 13:06 | 41.26987 | 28.72986 | 334 ft | 15 kts | 179° |
| 2026-05-05 13:07 | 41.26877 | 28.72989 | 332 ft | 17 kts | 179° |
| 2026-05-05 13:07 | 41.26760 | 28.72992 | 332 ft | 12 kts | 178° |
| 2026-05-05 13:07 | 41.26667 | 28.72994 | 334 ft | 14 kts | 180° |
| 2026-05-05 13:07 | 41.26598 | 28.73045 | 331 ft | 13 kts | 98° |
| 2026-05-05 13:08 | 41.26599 | 28.73180 | 333 ft | 16 kts | 89° |
| 2026-05-05 13:08 | 41.26599 | 28.73330 | 334 ft | 12 kts | 100° |
| 2026-05-05 13:08 | 41.26529 | 28.73385 | 334 ft | 13 kts | 160° |
| 2026-05-05 13:08 | 41.26436 | 28.73428 | 331 ft | 15 kts | 162° |
| 2026-05-05 13:09 | 41.26344 | 28.73470 | 332 ft | 9 kts | 161° |
| 2026-05-05 13:09 | 41.26323 | 28.73508 | 334 ft | 6 kts | 85° |
| 2026-05-05 13:09 | 41.26334 | 28.73559 | 332 ft | 3 kts | 70° |
| 2026-05-05 13:09 | 41.26338 | 28.73575 | 334 ft | 0 kts | 71° |